sensor_id;sensor_type;location;lat;lon;timestamp;P1;durP1;ratioP1;P2;durP2;ratioP2
59830;SDS011;45711;50.108;13.712;2022-12-18T00:00:38;124.72;;;36.28;;
59830;SDS011;45711;50.108;13.712;2022-12-18T00:03:05;147.90;;;35.92;;
59830;SDS011;45711;50.108;13.712;2022-12-18T00:05:30;130.85;;;36.08;;
59830;SDS011;45711;50.108;13.712;2022-12-18T00:07:56;142.35;;;36.42;;
59830;SDS011;45711;50.108;13.712;2022-12-18T00:10:21;144.77;;;39.70;;
59830;SDS011;45711;50.108;13.712;2022-12-18T00:12:48;159.55;;;42.50;;
59830;SDS011;45711;50.108;13.712;2022-12-18T00:15:14;153.52;;;39.90;;
59830;SDS011;45711;50.108;13.712;2022-12-18T00:17:40;142.63;;;40.25;;
59830;SDS011;45711;50.108;13.712;2022-12-18T00:20:06;171.93;;;43.50;;
59830;SDS011;45711;50.108;13.712;2022-12-18T00:22:32;154.60;;;42.90;;
59830;SDS011;45711;50.108;13.712;2022-12-18T00:24:58;154.55;;;41.67;;
59830;SDS011;45711;50.108;13.712;2022-12-18T00:27:24;147.77;;;41.25;;
59830;SDS011;45711;50.108;13.712;2022-12-18T00:29:51;166.15;;;41.60;;
59830;SDS011;45711;50.108;13.712;2022-12-18T00:32:16;156.25;;;39.65;;
59830;SDS011;45711;50.108;13.712;2022-12-18T00:34:42;154.40;;;40.65;;
59830;SDS011;45711;50.108;13.712;2022-12-18T00:37:08;145.50;;;40.45;;
59830;SDS011;45711;50.108;13.712;2022-12-18T00:39:33;142.60;;;40.10;;
59830;SDS011;45711;50.108;13.712;2022-12-18T00:42:02;137.02;;;37.92;;
59830;SDS011;45711;50.108;13.712;2022-12-18T00:47:15;131.07;;;33.67;;
59830;SDS011;45711;50.108;13.712;2022-12-18T00:49:41;134.13;;;33.85;;
59830;SDS011;45711;50.108;13.712;2022-12-18T00:52:09;128.48;;;35.55;;
59830;SDS011;45711;50.108;13.712;2022-12-18T00:54:35;127.75;;;32.20;;
59830;SDS011;45711;50.108;13.712;2022-12-18T00:57:04;122.55;;;35.30;;
59830;SDS011;45711;50.108;13.712;2022-12-18T00:59:38;151.07;;;36.88;;
59830;SDS011;45711;50.108;13.712;2022-12-18T01:02:04;114.25;;;33.65;;
59830;SDS011;45711;50.108;13.712;2022-12-18T01:04:34;123.30;;;35.20;;
59830;SDS011;45711;50.108;13.712;2022-12-18T01:06:59;123.72;;;35.45;;
59830;SDS011;45711;50.108;13.712;2022-12-18T01:09:28;146.90;;;37.15;;
59830;SDS011;45711;50.108;13.712;2022-12-18T01:11:54;145.98;;;37.47;;
59830;SDS011;45711;50.108;13.712;2022-12-18T01:14:20;139.05;;;33.60;;
59830;SDS011;45711;50.108;13.712;2022-12-18T01:16:45;120.63;;;34.00;;
59830;SDS011;45711;50.108;13.712;2022-12-18T01:19:11;122.13;;;35.10;;
59830;SDS011;45711;50.108;13.712;2022-12-18T01:21:38;117.53;;;31.48;;
59830;SDS011;45711;50.108;13.712;2022-12-18T01:24:07;128.50;;;34.58;;
59830;SDS011;45711;50.108;13.712;2022-12-18T01:26:32;127.30;;;37.45;;
59830;SDS011;45711;50.108;13.712;2022-12-18T01:28:58;138.43;;;35.28;;
59830;SDS011;45711;50.108;13.712;2022-12-18T01:31:25;116.93;;;36.33;;
59830;SDS011;45711;50.108;13.712;2022-12-18T01:33:54;114.40;;;32.70;;
59830;SDS011;45711;50.108;13.712;2022-12-18T01:36:21;109.97;;;32.90;;
59830;SDS011;45711;50.108;13.712;2022-12-18T01:38:50;124.55;;;35.70;;
59830;SDS011;45711;50.108;13.712;2022-12-18T01:41:17;137.15;;;35.95;;
59830;SDS011;45711;50.108;13.712;2022-12-18T01:44:00;156.80;;;38.55;;
59830;SDS011;45711;50.108;13.712;2022-12-18T01:46:28;136.93;;;37.72;;
59830;SDS011;45711;50.108;13.712;2022-12-18T01:48:55;138.35;;;36.78;;
59830;SDS011;45711;50.108;13.712;2022-12-18T01:51:24;146.10;;;38.00;;
59830;SDS011;45711;50.108;13.712;2022-12-18T01:53:54;143.05;;;41.08;;
59830;SDS011;45711;50.108;13.712;2022-12-18T01:56:22;137.40;;;39.35;;
59830;SDS011;45711;50.108;13.712;2022-12-18T01:58:51;144.02;;;40.08;;
59830;SDS011;45711;50.108;13.712;2022-12-18T02:01:24;141.75;;;40.75;;
59830;SDS011;45711;50.108;13.712;2022-12-18T02:03:55;145.75;;;40.80;;
59830;SDS011;45711;50.108;13.712;2022-12-18T02:06:32;160.57;;;41.90;;
59830;SDS011;45711;50.108;13.712;2022-12-18T02:09:07;142.95;;;37.63;;
59830;SDS011;45711;50.108;13.712;2022-12-18T02:11:42;139.48;;;37.63;;
59830;SDS011;45711;50.108;13.712;2022-12-18T02:14:21;123.53;;;37.47;;
59830;SDS011;45711;50.108;13.712;2022-12-18T02:16:57;119.82;;;35.70;;
59830;SDS011;45711;50.108;13.712;2022-12-18T02:19:38;132.85;;;39.05;;
59830;SDS011;45711;50.108;13.712;2022-12-18T02:22:23;119.38;;;36.67;;
59830;SDS011;45711;50.108;13.712;2022-12-18T02:24:59;136.77;;;38.42;;
59830;SDS011;45711;50.108;13.712;2022-12-18T02:27:39;333.08;;;90.93;;
59830;SDS011;45711;50.108;13.712;2022-12-18T02:30:10;212.70;;;56.28;;
59830;SDS011;45711;50.108;13.712;2022-12-18T02:32:38;146.60;;;41.22;;
59830;SDS011;45711;50.108;13.712;2022-12-18T02:35:11;109.10;;;35.58;;
59830;SDS011;45711;50.108;13.712;2022-12-18T02:37:42;118.32;;;34.97;;
59830;SDS011;45711;50.108;13.712;2022-12-18T02:40:15;131.07;;;36.00;;
59830;SDS011;45711;50.108;13.712;2022-12-18T02:42:43;134.13;;;34.88;;
59830;SDS011;45711;50.108;13.712;2022-12-18T02:45:09;143.52;;;40.38;;
59830;SDS011;45711;50.108;13.712;2022-12-18T02:47:36;126.50;;;37.67;;
59830;SDS011;45711;50.108;13.712;2022-12-18T02:50:06;118.65;;;35.65;;
59830;SDS011;45711;50.108;13.712;2022-12-18T02:52:42;120.80;;;33.78;;
59830;SDS011;45711;50.108;13.712;2022-12-18T02:55:21;109.10;;;32.53;;
59830;SDS011;45711;50.108;13.712;2022-12-18T02:57:56;116.60;;;34.40;;
59830;SDS011;45711;50.108;13.712;2022-12-18T03:00:31;119.85;;;34.90;;
59830;SDS011;45711;50.108;13.712;2022-12-18T03:03:05;127.03;;;34.63;;
59830;SDS011;45711;50.108;13.712;2022-12-18T03:05:36;135.00;;;36.50;;
59830;SDS011;45711;50.108;13.712;2022-12-18T03:08:06;140.73;;;36.60;;
59830;SDS011;45711;50.108;13.712;2022-12-18T03:10:40;133.60;;;35.90;;
59830;SDS011;45711;50.108;13.712;2022-12-18T03:13:16;140.30;;;37.30;;
59830;SDS011;45711;50.108;13.712;2022-12-18T03:15:53;103.00;;;32.92;;
59830;SDS011;45711;50.108;13.712;2022-12-18T03:18:22;119.90;;;34.92;;
59830;SDS011;45711;50.108;13.712;2022-12-18T03:20:51;116.10;;;33.92;;
59830;SDS011;45711;50.108;13.712;2022-12-18T03:23:22;115.47;;;33.55;;
59830;SDS011;45711;50.108;13.712;2022-12-18T03:25:55;119.97;;;36.95;;
59830;SDS011;45711;50.108;13.712;2022-12-18T03:28:26;124.78;;;35.63;;
59830;SDS011;45711;50.108;13.712;2022-12-18T03:31:01;123.00;;;35.10;;
59830;SDS011;45711;50.108;13.712;2022-12-18T03:33:39;118.95;;;35.28;;
59830;SDS011;45711;50.108;13.712;2022-12-18T03:36:12;130.27;;;39.63;;
59830;SDS011;45711;50.108;13.712;2022-12-18T03:38:38;135.02;;;38.58;;
59830;SDS011;45711;50.108;13.712;2022-12-18T03:41:05;125.95;;;36.95;;
59830;SDS011;45711;50.108;13.712;2022-12-18T03:43:42;142.95;;;39.63;;
59830;SDS011;45711;50.108;13.712;2022-12-18T03:46:17;135.05;;;37.38;;
59830;SDS011;45711;50.108;13.712;2022-12-18T03:48:51;134.88;;;38.45;;
59830;SDS011;45711;50.108;13.712;2022-12-18T03:51:23;128.85;;;37.92;;
59830;SDS011;45711;50.108;13.712;2022-12-18T03:53:53;136.00;;;37.72;;
59830;SDS011;45711;50.108;13.712;2022-12-18T03:56:23;104.88;;;35.22;;
59830;SDS011;45711;50.108;13.712;2022-12-18T03:58:54;131.40;;;38.08;;
59830;SDS011;45711;50.108;13.712;2022-12-18T04:01:23;126.35;;;36.83;;
59830;SDS011;45711;50.108;13.712;2022-12-18T04:03:54;120.05;;;35.33;;
59830;SDS011;45711;50.108;13.712;2022-12-18T04:06:21;115.68;;;34.60;;
59830;SDS011;45711;50.108;13.712;2022-12-18T04:08:48;129.05;;;35.72;;
59830;SDS011;45711;50.108;13.712;2022-12-18T04:11:14;122.13;;;35.42;;
59830;SDS011;45711;50.108;13.712;2022-12-18T04:13:40;118.07;;;33.45;;
59830;SDS011;45711;50.108;13.712;2022-12-18T04:16:09;124.63;;;34.97;;
59830;SDS011;45711;50.108;13.712;2022-12-18T04:18:34;106.00;;;34.33;;
59830;SDS011;45711;50.108;13.712;2022-12-18T04:21:01;112.57;;;33.22;;
59830;SDS011;45711;50.108;13.712;2022-12-18T04:23:27;99.75;;;31.30;;
59830;SDS011;45711;50.108;13.712;2022-12-18T04:25:53;117.80;;;33.03;;
59830;SDS011;45711;50.108;13.712;2022-12-18T04:28:19;117.43;;;35.60;;
59830;SDS011;45711;50.108;13.712;2022-12-18T04:30:44;106.03;;;34.38;;
59830;SDS011;45711;50.108;13.712;2022-12-18T04:33:12;114.05;;;33.45;;
59830;SDS011;45711;50.108;13.712;2022-12-18T04:35:44;101.95;;;32.80;;
59830;SDS011;45711;50.108;13.712;2022-12-18T04:38:09;110.05;;;33.15;;
59830;SDS011;45711;50.108;13.712;2022-12-18T04:40:35;111.68;;;31.80;;
59830;SDS011;45711;50.108;13.712;2022-12-18T04:43:01;108.95;;;31.48;;
59830;SDS011;45711;50.108;13.712;2022-12-18T04:45:27;101.25;;;30.67;;
59830;SDS011;45711;50.108;13.712;2022-12-18T04:47:53;92.22;;;30.20;;
59830;SDS011;45711;50.108;13.712;2022-12-18T04:50:19;101.70;;;32.05;;
59830;SDS011;45711;50.108;13.712;2022-12-18T04:52:45;111.78;;;29.92;;
59830;SDS011;45711;50.108;13.712;2022-12-18T04:55:10;105.35;;;30.33;;
59830;SDS011;45711;50.108;13.712;2022-12-18T04:57:36;108.13;;;31.75;;
59830;SDS011;45711;50.108;13.712;2022-12-18T05:00:01;93.95;;;29.30;;
59830;SDS011;45711;50.108;13.712;2022-12-18T05:02:27;102.78;;;31.90;;
59830;SDS011;45711;50.108;13.712;2022-12-18T05:04:53;92.25;;;28.95;;
59830;SDS011;45711;50.108;13.712;2022-12-18T05:07:19;91.20;;;28.80;;
59830;SDS011;45711;50.108;13.712;2022-12-18T05:09:45;89.72;;;27.48;;
59830;SDS011;45711;50.108;13.712;2022-12-18T05:12:10;88.40;;;26.73;;
59830;SDS011;45711;50.108;13.712;2022-12-18T05:14:36;84.53;;;25.88;;
59830;SDS011;45711;50.108;13.712;2022-12-18T05:17:01;71.80;;;25.35;;
59830;SDS011;45711;50.108;13.712;2022-12-18T05:19:27;68.57;;;23.63;;
59830;SDS011;45711;50.108;13.712;2022-12-18T05:21:52;80.30;;;23.10;;
59830;SDS011;45711;50.108;13.712;2022-12-18T05:24:19;76.22;;;24.30;;
59830;SDS011;45711;50.108;13.712;2022-12-18T05:26:45;73.35;;;22.08;;
59830;SDS011;45711;50.108;13.712;2022-12-18T05:29:10;70.03;;;21.30;;
59830;SDS011;45711;50.108;13.712;2022-12-18T05:31:37;67.32;;;20.20;;
59830;SDS011;45711;50.108;13.712;2022-12-18T05:34:03;61.35;;;21.15;;
59830;SDS011;45711;50.108;13.712;2022-12-18T05:36:28;75.75;;;20.25;;
59830;SDS011;45711;50.108;13.712;2022-12-18T05:38:54;64.75;;;20.33;;
59830;SDS011;45711;50.108;13.712;2022-12-18T05:41:21;60.85;;;19.20;;
59830;SDS011;45711;50.108;13.712;2022-12-18T05:43:47;58.10;;;19.45;;
59830;SDS011;45711;50.108;13.712;2022-12-18T05:46:13;74.50;;;21.02;;
59830;SDS011;45711;50.108;13.712;2022-12-18T05:48:40;55.88;;;19.63;;
59830;SDS011;45711;50.108;13.712;2022-12-18T05:51:06;51.10;;;18.38;;
59830;SDS011;45711;50.108;13.712;2022-12-18T05:53:32;58.97;;;15.50;;
59830;SDS011;45711;50.108;13.712;2022-12-18T05:55:59;57.45;;;17.98;;
59830;SDS011;45711;50.108;13.712;2022-12-18T05:58:27;57.88;;;17.35;;
59830;SDS011;45711;50.108;13.712;2022-12-18T06:00:52;52.28;;;16.38;;
59830;SDS011;45711;50.108;13.712;2022-12-18T06:03:18;59.65;;;16.92;;
59830;SDS011;45711;50.108;13.712;2022-12-18T06:05:44;51.65;;;17.48;;
59830;SDS011;45711;50.108;13.712;2022-12-18T06:08:10;54.78;;;17.23;;
59830;SDS011;45711;50.108;13.712;2022-12-18T06:10:36;54.80;;;18.52;;
59830;SDS011;45711;50.108;13.712;2022-12-18T06:13:02;58.10;;;19.35;;
59830;SDS011;45711;50.108;13.712;2022-12-18T06:15:29;63.15;;;22.75;;
59830;SDS011;45711;50.108;13.712;2022-12-18T06:17:55;58.65;;;19.75;;
59830;SDS011;45711;50.108;13.712;2022-12-18T06:20:20;72.85;;;21.27;;
59830;SDS011;45711;50.108;13.712;2022-12-18T06:22:46;65.40;;;19.88;;
59830;SDS011;45711;50.108;13.712;2022-12-18T06:25:11;60.30;;;20.88;;
59830;SDS011;45711;50.108;13.712;2022-12-18T06:27:37;61.30;;;19.02;;
59830;SDS011;45711;50.108;13.712;2022-12-18T06:30:03;64.50;;;20.63;;
59830;SDS011;45711;50.108;13.712;2022-12-18T06:32:30;63.22;;;19.20;;
59830;SDS011;45711;50.108;13.712;2022-12-18T06:34:56;58.05;;;19.60;;
59830;SDS011;45711;50.108;13.712;2022-12-18T06:37:22;57.33;;;19.08;;
59830;SDS011;45711;50.108;13.712;2022-12-18T06:39:51;61.78;;;18.38;;
59830;SDS011;45711;50.108;13.712;2022-12-18T06:42:16;66.25;;;19.02;;
59830;SDS011;45711;50.108;13.712;2022-12-18T06:44:42;59.00;;;17.25;;
59830;SDS011;45711;50.108;13.712;2022-12-18T06:47:10;50.00;;;16.77;;
59830;SDS011;45711;50.108;13.712;2022-12-18T06:49:37;54.78;;;17.58;;
59830;SDS011;45711;50.108;13.712;2022-12-18T06:52:02;57.25;;;17.15;;
59830;SDS011;45711;50.108;13.712;2022-12-18T06:54:28;51.22;;;16.52;;
59830;SDS011;45711;50.108;13.712;2022-12-18T06:56:54;49.20;;;16.00;;
59830;SDS011;45711;50.108;13.712;2022-12-18T06:59:19;39.50;;;13.43;;
59830;SDS011;45711;50.108;13.712;2022-12-18T07:01:45;45.70;;;13.70;;
59830;SDS011;45711;50.108;13.712;2022-12-18T07:04:10;43.25;;;13.20;;
59830;SDS011;45711;50.108;13.712;2022-12-18T07:06:38;33.47;;;12.88;;
59830;SDS011;45711;50.108;13.712;2022-12-18T07:09:03;46.45;;;14.35;;
59830;SDS011;45711;50.108;13.712;2022-12-18T07:11:29;38.38;;;13.35;;
59830;SDS011;45711;50.108;13.712;2022-12-18T07:13:54;39.40;;;12.52;;
59830;SDS011;45711;50.108;13.712;2022-12-18T07:16:24;36.60;;;12.10;;
59830;SDS011;45711;50.108;13.712;2022-12-18T07:18:50;37.83;;;12.38;;
59830;SDS011;45711;50.108;13.712;2022-12-18T07:21:16;31.75;;;12.15;;
59830;SDS011;45711;50.108;13.712;2022-12-18T07:23:45;38.08;;;13.02;;
59830;SDS011;45711;50.108;13.712;2022-12-18T07:26:13;37.13;;;12.25;;
59830;SDS011;45711;50.108;13.712;2022-12-18T07:28:40;38.25;;;12.48;;
59830;SDS011;45711;50.108;13.712;2022-12-18T07:31:07;32.28;;;10.95;;
59830;SDS011;45711;50.108;13.712;2022-12-18T07:33:34;33.17;;;11.70;;
59830;SDS011;45711;50.108;13.712;2022-12-18T07:36:02;42.42;;;11.07;;
59830;SDS011;45711;50.108;13.712;2022-12-18T07:38:29;39.22;;;11.77;;
59830;SDS011;45711;50.108;13.712;2022-12-18T07:41:01;33.40;;;11.50;;
59830;SDS011;45711;50.108;13.712;2022-12-18T07:43:27;33.65;;;12.10;;
59830;SDS011;45711;50.108;13.712;2022-12-18T07:45:52;35.15;;;12.23;;
59830;SDS011;45711;50.108;13.712;2022-12-18T07:48:18;42.10;;;12.60;;
59830;SDS011;45711;50.108;13.712;2022-12-18T07:50:43;34.45;;;12.15;;
59830;SDS011;45711;50.108;13.712;2022-12-18T07:53:09;29.95;;;11.18;;
59830;SDS011;45711;50.108;13.712;2022-12-18T07:55:34;43.72;;;13.63;;
59830;SDS011;45711;50.108;13.712;2022-12-18T07:58:02;43.33;;;12.65;;
59830;SDS011;45711;50.108;13.712;2022-12-18T08:00:29;47.83;;;14.02;;
59830;SDS011;45711;50.108;13.712;2022-12-18T08:02:54;34.63;;;13.40;;
59830;SDS011;45711;50.108;13.712;2022-12-18T08:05:20;39.63;;;14.10;;
59830;SDS011;45711;50.108;13.712;2022-12-18T08:07:46;47.20;;;14.48;;
59830;SDS011;45711;50.108;13.712;2022-12-18T08:10:12;46.63;;;13.85;;
59830;SDS011;45711;50.108;13.712;2022-12-18T08:12:38;46.50;;;14.82;;
59830;SDS011;45711;50.108;13.712;2022-12-18T08:15:09;43.40;;;14.15;;
59830;SDS011;45711;50.108;13.712;2022-12-18T08:17:37;42.63;;;15.05;;
59830;SDS011;45711;50.108;13.712;2022-12-18T08:20:03;47.22;;;15.45;;
59830;SDS011;45711;50.108;13.712;2022-12-18T08:22:29;46.88;;;15.07;;
59830;SDS011;45711;50.108;13.712;2022-12-18T08:24:55;57.65;;;16.63;;
59830;SDS011;45711;50.108;13.712;2022-12-18T08:27:21;51.47;;;15.52;;
59830;SDS011;45711;50.108;13.712;2022-12-18T08:29:46;56.42;;;17.35;;
59830;SDS011;45711;50.108;13.712;2022-12-18T08:32:13;51.63;;;16.38;;
59830;SDS011;45711;50.108;13.712;2022-12-18T08:34:43;64.93;;;17.58;;
59830;SDS011;45711;50.108;13.712;2022-12-18T08:37:12;69.75;;;17.77;;
59830;SDS011;45711;50.108;13.712;2022-12-18T08:39:41;66.63;;;17.27;;
59830;SDS011;45711;50.108;13.712;2022-12-18T08:42:07;56.08;;;17.33;;
59830;SDS011;45711;50.108;13.712;2022-12-18T08:44:54;53.53;;;17.20;;
59830;SDS011;45711;50.108;13.712;2022-12-18T08:47:21;66.15;;;18.92;;
59830;SDS011;45711;50.108;13.712;2022-12-18T08:49:46;53.88;;;17.67;;
59830;SDS011;45711;50.108;13.712;2022-12-18T08:52:12;47.13;;;16.20;;
59830;SDS011;45711;50.108;13.712;2022-12-18T08:54:37;61.72;;;18.00;;
59830;SDS011;45711;50.108;13.712;2022-12-18T08:57:07;56.90;;;16.98;;
59830;SDS011;45711;50.108;13.712;2022-12-18T08:59:32;62.42;;;16.75;;
59830;SDS011;45711;50.108;13.712;2022-12-18T09:02:04;55.35;;;16.77;;
59830;SDS011;45711;50.108;13.712;2022-12-18T09:04:37;55.97;;;16.13;;
59830;SDS011;45711;50.108;13.712;2022-12-18T09:07:02;57.55;;;17.60;;
59830;SDS011;45711;50.108;13.712;2022-12-18T09:09:28;55.00;;;17.23;;
59830;SDS011;45711;50.108;13.712;2022-12-18T09:12:05;55.60;;;15.90;;
59830;SDS011;45711;50.108;13.712;2022-12-18T09:14:31;59.97;;;17.40;;
59830;SDS011;45711;50.108;13.712;2022-12-18T09:16:57;50.45;;;16.95;;
59830;SDS011;45711;50.108;13.712;2022-12-18T09:19:22;56.35;;;17.60;;
59830;SDS011;45711;50.108;13.712;2022-12-18T09:21:51;57.47;;;17.13;;
59830;SDS011;45711;50.108;13.712;2022-12-18T09:24:22;58.90;;;16.63;;
59830;SDS011;45711;50.108;13.712;2022-12-18T09:26:48;48.72;;;15.73;;
59830;SDS011;45711;50.108;13.712;2022-12-18T09:29:14;45.53;;;15.23;;
59830;SDS011;45711;50.108;13.712;2022-12-18T09:31:39;54.30;;;14.80;;
59830;SDS011;45711;50.108;13.712;2022-12-18T09:34:05;40.95;;;13.77;;
59830;SDS011;45711;50.108;13.712;2022-12-18T09:36:38;66.95;;;15.60;;
59830;SDS011;45711;50.108;13.712;2022-12-18T09:39:05;51.13;;;14.90;;
59830;SDS011;45711;50.108;13.712;2022-12-18T09:41:39;50.33;;;13.63;;
59830;SDS011;45711;50.108;13.712;2022-12-18T09:44:10;49.80;;;13.98;;
59830;SDS011;45711;50.108;13.712;2022-12-18T09:46:43;62.85;;;16.58;;
59830;SDS011;45711;50.108;13.712;2022-12-18T09:49:12;60.00;;;15.93;;
59830;SDS011;45711;50.108;13.712;2022-12-18T09:51:42;43.50;;;13.50;;
59830;SDS011;45711;50.108;13.712;2022-12-18T09:54:12;49.05;;;13.98;;
59830;SDS011;45711;50.108;13.712;2022-12-18T09:56:42;43.92;;;15.00;;
59830;SDS011;45711;50.108;13.712;2022-12-18T09:59:14;52.38;;;15.20;;
59830;SDS011;45711;50.108;13.712;2022-12-18T10:01:45;61.35;;;15.60;;
59830;SDS011;45711;50.108;13.712;2022-12-18T10:04:10;39.22;;;13.27;;
59830;SDS011;45711;50.108;13.712;2022-12-18T10:06:37;49.78;;;14.90;;
59830;SDS011;45711;50.108;13.712;2022-12-18T10:09:09;43.13;;;15.32;;
59830;SDS011;45711;50.108;13.712;2022-12-18T10:11:47;43.00;;;14.13;;
59830;SDS011;45711;50.108;13.712;2022-12-18T10:14:19;43.22;;;15.45;;
59830;SDS011;45711;50.108;13.712;2022-12-18T10:16:53;49.42;;;15.25;;
59830;SDS011;45711;50.108;13.712;2022-12-18T10:19:32;44.83;;;13.63;;
59830;SDS011;45711;50.108;13.712;2022-12-18T10:22:08;48.78;;;15.20;;
59830;SDS011;45711;50.108;13.712;2022-12-18T10:24:47;43.35;;;14.00;;
59830;SDS011;45711;50.108;13.712;2022-12-18T10:27:21;39.58;;;13.60;;
59830;SDS011;45711;50.108;13.712;2022-12-18T10:29:49;44.58;;;14.68;;
59830;SDS011;45711;50.108;13.712;2022-12-18T10:32:16;42.88;;;13.95;;
59830;SDS011;45711;50.108;13.712;2022-12-18T10:34:46;47.63;;;15.50;;
59830;SDS011;45711;50.108;13.712;2022-12-18T10:37:17;40.88;;;13.73;;
59830;SDS011;45711;50.108;13.712;2022-12-18T10:39:46;45.05;;;14.18;;
59830;SDS011;45711;50.108;13.712;2022-12-18T10:42:29;48.17;;;15.50;;
59830;SDS011;45711;50.108;13.712;2022-12-18T10:44:59;45.25;;;14.38;;
59830;SDS011;45711;50.108;13.712;2022-12-18T10:47:26;48.75;;;16.30;;
59830;SDS011;45711;50.108;13.712;2022-12-18T10:49:52;45.83;;;16.33;;
59830;SDS011;45711;50.108;13.712;2022-12-18T10:52:25;46.92;;;15.65;;
59830;SDS011;45711;50.108;13.712;2022-12-18T10:54:54;48.15;;;17.65;;
59830;SDS011;45711;50.108;13.712;2022-12-18T10:57:33;57.90;;;17.25;;
59830;SDS011;45711;50.108;13.712;2022-12-18T11:00:18;48.63;;;15.73;;
59830;SDS011;45711;50.108;13.712;2022-12-18T11:02:47;49.15;;;15.90;;
59830;SDS011;45711;50.108;13.712;2022-12-18T11:05:24;45.70;;;15.50;;
59830;SDS011;45711;50.108;13.712;2022-12-18T11:07:51;49.63;;;15.57;;
59830;SDS011;45711;50.108;13.712;2022-12-18T11:10:21;50.35;;;14.95;;
59830;SDS011;45711;50.108;13.712;2022-12-18T11:12:48;40.42;;;14.00;;
59830;SDS011;45711;50.108;13.712;2022-12-18T11:15:15;55.47;;;17.50;;
59830;SDS011;45711;50.108;13.712;2022-12-18T11:17:47;45.70;;;14.13;;
59830;SDS011;45711;50.108;13.712;2022-12-18T11:20:20;48.92;;;16.15;;
59830;SDS011;45711;50.108;13.712;2022-12-18T11:22:55;48.20;;;14.70;;
59830;SDS011;45711;50.108;13.712;2022-12-18T11:25:23;47.78;;;14.40;;
59830;SDS011;45711;50.108;13.712;2022-12-18T11:27:50;41.95;;;14.20;;
59830;SDS011;45711;50.108;13.712;2022-12-18T11:30:21;38.15;;;14.45;;
59830;SDS011;45711;50.108;13.712;2022-12-18T11:32:49;50.17;;;16.65;;
59830;SDS011;45711;50.108;13.712;2022-12-18T11:35:17;42.63;;;14.82;;
59830;SDS011;45711;50.108;13.712;2022-12-18T11:37:47;41.55;;;15.00;;
59830;SDS011;45711;50.108;13.712;2022-12-18T11:40:19;39.38;;;13.77;;
59830;SDS011;45711;50.108;13.712;2022-12-18T11:45:27;48.92;;;13.55;;
59830;SDS011;45711;50.108;13.712;2022-12-18T11:47:56;37.85;;;14.30;;
59830;SDS011;45711;50.108;13.712;2022-12-18T11:50:24;40.63;;;14.15;;
59830;SDS011;45711;50.108;13.712;2022-12-18T11:52:56;43.53;;;14.98;;
59830;SDS011;45711;50.108;13.712;2022-12-18T11:55:24;47.28;;;14.02;;
59830;SDS011;45711;50.108;13.712;2022-12-18T11:58:02;41.80;;;13.82;;
59830;SDS011;45711;50.108;13.712;2022-12-18T12:00:35;50.58;;;14.38;;
59830;SDS011;45711;50.108;13.712;2022-12-18T12:03:17;40.15;;;14.48;;
59830;SDS011;45711;50.108;13.712;2022-12-18T12:05:52;44.10;;;15.27;;
59830;SDS011;45711;50.108;13.712;2022-12-18T12:08:31;39.53;;;13.90;;
59830;SDS011;45711;50.108;13.712;2022-12-18T12:11:09;48.63;;;15.60;;
59830;SDS011;45711;50.108;13.712;2022-12-18T12:13:44;39.10;;;13.45;;
59830;SDS011;45711;50.108;13.712;2022-12-18T12:16:21;39.05;;;12.85;;
59830;SDS011;45711;50.108;13.712;2022-12-18T12:18:53;37.42;;;13.90;;
59830;SDS011;45711;50.108;13.712;2022-12-18T12:21:31;38.88;;;13.88;;
59830;SDS011;45711;50.108;13.712;2022-12-18T12:24:05;36.63;;;13.95;;
59830;SDS011;45711;50.108;13.712;2022-12-18T12:26:45;36.42;;;13.38;;
59830;SDS011;45711;50.108;13.712;2022-12-18T12:29:25;45.03;;;15.02;;
59830;SDS011;45711;50.108;13.712;2022-12-18T12:32:04;44.10;;;14.43;;
59830;SDS011;45711;50.108;13.712;2022-12-18T12:34:39;39.45;;;14.75;;
59830;SDS011;45711;50.108;13.712;2022-12-18T12:37:18;39.17;;;14.25;;
59830;SDS011;45711;50.108;13.712;2022-12-18T12:39:51;39.00;;;14.00;;
59830;SDS011;45711;50.108;13.712;2022-12-18T12:45:33;41.75;;;14.77;;
59830;SDS011;45711;50.108;13.712;2022-12-18T12:48:04;43.40;;;14.63;;
59830;SDS011;45711;50.108;13.712;2022-12-18T12:50:36;41.75;;;14.48;;
59830;SDS011;45711;50.108;13.712;2022-12-18T12:53:06;41.75;;;15.77;;
59830;SDS011;45711;50.108;13.712;2022-12-18T12:55:36;48.55;;;16.85;;
59830;SDS011;45711;50.108;13.712;2022-12-18T12:58:06;47.33;;;16.13;;
59830;SDS011;45711;50.108;13.712;2022-12-18T13:00:43;46.55;;;15.35;;
59830;SDS011;45711;50.108;13.712;2022-12-18T13:03:21;44.67;;;16.13;;
59830;SDS011;45711;50.108;13.712;2022-12-18T13:05:54;46.88;;;16.02;;
59830;SDS011;45711;50.108;13.712;2022-12-18T13:08:28;46.65;;;15.45;;
59830;SDS011;45711;50.108;13.712;2022-12-18T13:10:55;45.55;;;16.08;;
59830;SDS011;45711;50.108;13.712;2022-12-18T13:13:54;45.00;;;14.63;;
59830;SDS011;45711;50.108;13.712;2022-12-18T13:16:23;38.30;;;16.65;;
59830;SDS011;45711;50.108;13.712;2022-12-18T13:18:50;46.92;;;15.98;;
59830;SDS011;45711;50.108;13.712;2022-12-18T13:21:20;53.05;;;15.85;;
59830;SDS011;45711;50.108;13.712;2022-12-18T13:23:54;50.13;;;15.20;;
59830;SDS011;45711;50.108;13.712;2022-12-18T13:26:33;42.70;;;15.80;;
59830;SDS011;45711;50.108;13.712;2022-12-18T13:28:59;42.67;;;15.90;;
59830;SDS011;45711;50.108;13.712;2022-12-18T13:34:33;49.38;;;16.90;;
59830;SDS011;45711;50.108;13.712;2022-12-18T13:39:57;43.10;;;16.00;;
59830;SDS011;45711;50.108;13.712;2022-12-18T13:45:35;47.30;;;15.27;;
59830;SDS011;45711;50.108;13.712;2022-12-18T13:48:05;46.25;;;15.60;;
59830;SDS011;45711;50.108;13.712;2022-12-18T13:50:42;45.92;;;16.35;;
59830;SDS011;45711;50.108;13.712;2022-12-18T13:53:11;48.38;;;16.65;;
59830;SDS011;45711;50.108;13.712;2022-12-18T13:55:45;45.03;;;17.30;;
59830;SDS011;45711;50.108;13.712;2022-12-18T13:58:11;49.65;;;15.95;;
59830;SDS011;45711;50.108;13.712;2022-12-18T14:00:40;47.58;;;16.20;;
59830;SDS011;45711;50.108;13.712;2022-12-18T14:03:15;49.05;;;16.88;;
59830;SDS011;45711;50.108;13.712;2022-12-18T14:05:44;51.17;;;17.45;;
59830;SDS011;45711;50.108;13.712;2022-12-18T14:08:12;156.82;;;48.80;;
59830;SDS011;45711;50.108;13.712;2022-12-18T14:10:40;69.40;;;25.77;;
59830;SDS011;45711;50.108;13.712;2022-12-18T14:13:08;45.72;;;16.15;;
59830;SDS011;45711;50.108;13.712;2022-12-18T14:15:36;45.47;;;17.67;;
59830;SDS011;45711;50.108;13.712;2022-12-18T14:18:09;51.22;;;17.35;;
59830;SDS011;45711;50.108;13.712;2022-12-18T14:20:49;40.72;;;16.67;;
59830;SDS011;45711;50.108;13.712;2022-12-18T14:23:26;48.17;;;17.10;;
59830;SDS011;45711;50.108;13.712;2022-12-18T14:25:53;44.40;;;16.00;;
59830;SDS011;45711;50.108;13.712;2022-12-18T14:28:18;45.25;;;16.63;;
59830;SDS011;45711;50.108;13.712;2022-12-18T14:30:46;52.22;;;16.88;;
59830;SDS011;45711;50.108;13.712;2022-12-18T14:33:14;47.92;;;15.50;;